普天間飛行場の過去48時間の天気

普天間飛行場 (Futema)

現在時刻: 7/16 15:27 JST (7/16 06:27 UTC) 以下の時間は現地時間です。

過去48時間のMETAR気象情報
時間 風向 風速(m/s) 視程 気温(℃) 湿度(%) 気圧(hPa) 天気現象
16 13:56 8 10km以上 29.4 80 1008.4
16 12:56 8 10km以上 29.4 82 1008.6
16 11:56 8 10km以上 29.4 82 1008.7
16 09:56 7 10km以上 28.3 88 1009.3
16 08:56 5 10km以上 27.8 90 1009.1
16 07:56 8 10km以上 27.2 94 1009
16 06:56 6 10km以上 26.1 100 1008.9
16 05:56 東南東 5 10km以上 25.6 96 1008.3 弱いしゅう雨 もや
16 05:45 東南東 7 1600m 26 100 1008.3 強いしゅう雨 もや
16 04:56 5 10km以上 26.1 97 1007.8
16 03:56 7 10km以上 26.1 97 1007.6
16 02:56 6 10km以上 25.6 100 1007.8
16 01:56 6 10km以上 26.1 97 1008.1
16 00:56 5 10km以上 26.1 96 1008.3
15 23:56 6 10km以上 26.1 94 1008.7
15 22:56 6 10km以上 26.1 94 1009.3
15 21:56 6 10km以上 26.1 90 1009.3
15 20:56 東北東 6 10km以上 26.7 87 1008.5
15 19:56 6 10km以上 27.8 82 1008.4
15 18:56 東北東 7 10km以上 27.8 82 1008
15 17:56 7 10km以上 28.3 79 1008.1
15 16:56 10 10km以上 28.9 77 1008.1
15 15:56 8 10km以上 29.4 75 1008.1
15 14:56 8 10km以上 30 72 1008.5
15 13:56 8 10km以上 30 72 1008.6
15 12:56 8 10km以上 30 67 1009.2
15 11:56 6 10km以上 30 67 1009.6
15 10:56 東北東 4 10km以上 30 67 1009.8
15 08:56 6 10km以上 26.7 82 1009.7
15 07:56 4 10km以上 26.1 85 1009.4
15 06:56 4 10km以上 26.7 85 1009.4
15 05:56 4 10km以上 26.1 88 1009
15 04:56 3 10km以上 26.7 85 1008.6
15 03:56 2 10km以上 26.7 87 1008.4
15 02:56 3 10km以上 26.7 85 1008.3
15 02:03 4 10km以上 26.7 87 1010
15 00:56 5 10km以上 26.7 87 1009
14 23:56 5 10km以上 26.7 87 1009.3
14 22:56 5 10km以上 26.7 85 1009.7
14 21:56 5 10km以上 27.2 82 1009.4
14 21:05 6 10km以上 27 84 1011
14 19:56 5 10km以上 27.8 79 1008.9
14 18:56 5 10km以上 27.8 79 1008.9
14 18:14 6 10km以上 28.3 77 1011
14 17:56 6 10km以上 28.6 76 1008.8
14 16:56 5 10km以上 28.3 77 1008.8
14 15:56 東南東 6 10km以上 28.3 77 1008.9
ROTM 160456Z 10015G21KT 9999 BKN011 BKN020 29/26 A2983 RMK SLP084 STNPR29530 X WND ADV T02940256
ROTM 160356Z 09015G20KT 9999 BKN012 BKN040 29/26 A2983 RMK SLP086 STNPR29530 X WND T02940261
ROTM 160256Z 09016G22KT 9999 BKN010 BKN040 29/26 A2984 RMK SLP087 STNPR29545 X WND SET T029440261 56002
ROTM 160056Z 09014G20KT 9999 BKN010 28/26 A2985 RMK SLP093 STNPR29550 T02830261
ROTM 152356Z 10010G21KT 9999 SCT010 BKN015 28/26 A2985 RMK SLP091 STNPR29550 60012 T02780261 10278 20250 51003
ROTM 152256Z 09015G19KT 9999 SCT010 BKN015 27/26 A2984 RMK SLP090 STNPR29540 T02720261
ROTM 152156Z 09012KT 9999 BKN010 BKN015 26/26 A2984 RMK SHRAE24 SLP089 STNPR29540 T02610261
ROTM 152056Z 12009KT 9999 -SHRA BR BKN009 BKN014 26/25 A2982 RMK SHARB45 SLP083 STNPR29510 P0005 60005 T02560250 54000
ROTM 152045Z 11013G18KT 1600 +SHRA BR BKN009 OVC020 26/26 A2982 RMK SLP083 STNPR29510
ROTM 151956Z 09010KT 9999 BKN010 BKN040 26/26 A2981 RMK SLP078 STNPR29510 T02610256
ROTM 151856Z 10014G19KT 9999 SCT010 26/26 A2980 RMK SLP076 STNPR29505 T02610256
ROTM 151756Z 08012KT 9999 BKN010 BKN035 26/26 A2981 RMK SLP078 STNPR29510 T02560256 10261 20256 56005
ROTM 151656Z 09011KT 9999 BKN010 BKN025 26/26 A2982 RMK SLP081 STNPR29520 T02610256
ROTM 151556Z 09010G21KT 9999 BKN010 BKN020 26/25 A2982 RMK SLP083 STNPR29525 T02610254
ROTM 151456Z 09011G20KT 9999 BKN015 BKN020 26/25 A2984 RMK SLP087 STNPR29540 T02610250 403000261 50005
ROTM 151356Z 08012G20KT 9999 BKN015 BKN020 26/25 A2985 RMK SLP093 STNPR29560 T02610250
ROTM 151256Z 09012KT 9999 BKN015 BKN020 26/24 A2985 RMK SLP093 STNPR29555 T02610244
ROTM 151156Z 07012KT 9999 BKN015 BKN020 27/24 A2983 RMK SLP085 STNPR29535 T02670244 10294 20267 51005
ROTM 151056Z 08012KT 9999 BKN015 28/24 A2982 RMK SLP084 STNPR29530 T02780244
ROTM 150956Z 07013G21KT 9999 BKN015 BKN025 28/24 A2981 RMK SLP080 STNPR29520 T02780244
ROTM 150856Z 08013G21KT 9999 SCT020 SCT030 28/24 A2981 RMK SLP081 STNPR29520 T02830244 54000
ROTM 150756Z 09019KT 9999 SCT020 29/24 A2982 RMK SLP081 STNPR29520 T02890244
ROTM 150656Z 08016G21KT 9999 SCT025 29/24 A2982 RMK SLP081 STNPR29520 T02940244
ROTM 150556Z 08015G18KT 9999 SCT025 SCT040 30/24 A2983 RMK SLP085 STNPR29535 T03000244 10300 20267 56007
ROTM 150456Z 08016KT 9999 SCT025 SCT040 30/24 A2983 RMK SLP086 STNPR29540 T03000244
ROTM 150356Z 09015KT 9999 SCT025 BKN040 BKN060 30/23 A2985 RMK SLP092 STNPR29555 T03000233
ROTM 150256Z 09011KT 9999 SCT026 30/23 A2986 RMK SLP096 STNPR29570 T03000233 58002
ROTM 150156Z 06008KT 9999 FEW023 30/23 A2987 RMK SLP098 STNPR29575 T03000233
ROTM 142356Z 09012KT 9999 SCT018 27/23 A2986 RMK SLP097 STNPR29560 T02670233 10267 20261 54000
ROTM 142256Z 08008KT 9999 FEW012 SCT025 SCT045 26/23 A2985 RMK SLP094 STNPR29560 T02610233
ROTM 142156Z 10007KT 9999 FEW012 SCT020 27/24 A2985 RMK SLP094 STNPR29560 T02670239
ROTM 142056Z 08008KT 9999 FEW012 SCT018 SCT025 26/24 A2984 RMK SLP090 STNPR29560 T02610239 55000
ROTM 141956Z 09005KT 9999 SCT014 BKN020 27/24 A2983 RMK SLP086 STNPR29550 T02670239
ROTM 141856Z 09004KT 9999 SCT015 BKN020 27/24 A2983 RMK SLP084 STNPR29560 T02670244
ROTM 141756Z 10006KT 9999 SCT014 BKN020 27/24 A2982 RMK SLP083 STNPR29550 T02670239 10272 20267 54000
ROTM 141703Z 10008KT 10SM FEW012 SCT017 27/24 A2983 RMK AO2 T02670244
ROTM 141556Z 10009KT 9999 SCT016 BKN023 27/24 A2984 RMK SLP090 STNPR29550 T02670244
ROTM 141456Z 09009KT 9999 SCT016 SCT030 27/24 A2985 RMK SLP093 STNPR29560 T02670244 403000261 50002
ROTM 141356Z 10009KT 9999 SCT016 SCT022 27/24 A2986 RMK SLP097 STNPR29560 T02670239
ROTM 141256Z 08010KT 9999 SCT016 BKN026 27/24 A2986 RMK SLP094 STNPR29560 T02720239
ROTM 141205Z 08011KT 10SM BKN014 BKN020 27/24 A2985 RMK AO2 T022/244
ROTM 141056Z 08009KT 9999 SCT017 27/24 A2984 RMK SLP089 STNPR29550 T02780239
ROTM 140956Z 09010KT 9999 SCT018 BKN038 28/24 A2984 RMK SLP089 STNPR29540 T02780239
ROTM 140914Z AUTO 09012KT 10SM BKN017 28/24 A2984 RMK AO2 T02830239
ROTM 140856Z 08011KT 9999 SCT018 BKN040 28/24 A2983 RMK SLP088 STNPR29560 T02860239 57007
ROTM 140756Z 10010KT 9999 FEW017 SCT025 BKN040 28/24 A2984 RMK SLP088 STNPR29570 T02830239
ROTM 140656Z 11011KT 9999 FEW015 SCT025 BKN040 28/24 A2984 RMK SLP089 STNPR29580 T02830239